Dearborn, MI (48123)

11:57 AM EDT on July 06, 2015 (GMT -0400)
Dearborn, East - north of the real city hall | | Change Station
CLOSE
Current Station
Personal Weather Station
Location: Dearborn, MI
Elevation: 597 ft
Nearby Weather Stations

Elev 597 ft 42.32 °N, 83.18 °W | Updated 14 minutes ago

Clear
Clear
80.1 °F
Feels Like 82 °F
N
2.7
Wind Variable Wind from NNE

Today
High -- | Low -- °F
--% Chance of Precip.
Yesterday
High -- | Low -- °F
Precip. -- in
6:02 AM 9:12 PM
Waning Gibbous, 74% visible
Pressure 30.05 in
Visibility 10.0 miles
Clouds Few 22000 ft
Heat Index 82 °F
Dew Point 65 °F
Humidity 61%
Rainfall 0.00 in
Snow Depth Not available.
UV 9 out of 12
Pollen 3.10 out of 12
Air Quality Not available.
Flu Activity Not available.
METAR KDTW 061553Z 19005KT 10SM FEW220 26/17 A3006 RMK AO2 SLP176 T02610167

More Conditions Fewer Conditions

Pressure 30.05 in
Visibility 10.0 miles
Clouds Few 22000 ft
Heat Index 82 °F
Dew Point 65 °F
Humidity 61%
Rainfall 0.00 in
Snow Depth Not available.
UV 9 out of 12
Pollen 3.10 out of 12
Air Quality Not available.
Flu Activity Not available.
METAR KDTW 061553Z 19005KT 10SM FEW220 26/17 A3006 RMK AO2 SLP176 T02610167

More Conditions Fewer Conditions

10-Day Weather Forecast

×

Almanac

Astronomy

Jul. 06, 2015 Rise Set
Actual Time
Civil Twilight
Nautical Twilight
Astronomical Twilight
Moon
Length of Visible Light
Length of Day
Tomorrow will be .
, % of the Moon is Illuminated

Today's Extremes

State Highs State Lows

Community

WunderPhotos

Upload Photos

1,835,576 photos uploaded!

WunderBlogs® & News

Nearby

Air Quality

  Air Quality AQ Index Pollutant
Not available.

Snow Depth

Station Depth Elevation

Earthquake Activity

City Distance Mag. Time & Date
Minimum magnitude displayed is 2.5.

Coastal Water Temperatures

Place Temperature

Stations

Nearby Weather Stations

Station Location Temp. Windchill Dew Point Humidity Wind Precip. Elev Updated Type